createdAt,value
2023-07-30T00:00:58.262Z,4.20
2023-07-30T00:03:25.201Z,4.00
2023-07-30T00:05:58.241Z,3.90
2023-07-30T00:08:25.281Z,4.20
2023-07-30T00:11:02.078Z,4.00
2023-07-30T00:13:32.437Z,3.88
2023-07-30T00:15:59.087Z,4.18
2023-07-30T00:18:26.009Z,3.85
2023-07-30T00:20:52.806Z,3.55
2023-07-30T00:23:19.653Z,4.10
2023-07-30T00:25:46.528Z,4.20
2023-07-30T00:28:13.367Z,3.17
2023-07-30T00:30:43.009Z,4.30
2023-07-30T00:33:09.845Z,3.80
2023-07-30T00:35:36.789Z,3.88
2023-07-30T00:38:03.575Z,4.03
2023-07-30T00:40:30.345Z,3.97
2023-07-30T00:42:57.288Z,4.10
2023-07-30T00:45:26.405Z,4.00
2023-07-30T00:47:53.339Z,3.78
2023-07-30T00:50:20.352Z,3.80
2023-07-30T00:52:47.225Z,4.03
2023-07-30T00:55:17.651Z,4.65
2023-07-30T00:57:47.644Z,3.88
2023-07-30T01:00:18.023Z,4.15
2023-07-30T01:02:47.447Z,4.47
2023-07-30T01:05:14.392Z,4.05
2023-07-30T01:07:42.014Z,4.10
2023-07-30T01:10:17.115Z,4.07
2023-07-30T01:12:54.479Z,3.78
2023-07-30T01:15:31.052Z,4.22
2023-07-30T01:17:58.312Z,4.43
2023-07-30T01:20:25.285Z,4.13
2023-07-30T01:22:52.165Z,3.53
2023-07-30T01:25:31.988Z,4.18
2023-07-30T01:28:03.473Z,4.53
2023-07-30T01:30:42.142Z,4.57
2023-07-30T01:33:11.259Z,4.40
2023-07-30T01:35:39.371Z,4.05
2023-07-30T01:38:10.753Z,4.55
2023-07-30T01:40:37.674Z,4.20
2023-07-30T01:43:04.545Z,4.40
2023-07-30T01:45:31.447Z,4.22
2023-07-30T01:47:58.340Z,4.30
2023-07-30T01:50:26.913Z,4.40
2023-07-30T01:52:53.658Z,4.25
2023-07-30T01:55:20.686Z,4.65
2023-07-30T01:57:47.727Z,5.22
2023-07-30T02:00:15.234Z,4.38
2023-07-30T02:02:44.610Z,3.65
2023-07-30T02:05:17.144Z,4.63
2023-07-30T02:07:44.345Z,3.70
2023-07-30T02:10:11.021Z,3.95
2023-07-30T02:12:37.859Z,3.88
2023-07-30T02:15:05.212Z,4.20
2023-07-30T02:17:32.783Z,3.88
2023-07-30T02:19:59.638Z,4.20
2023-07-30T02:22:28.605Z,3.85
2023-07-30T02:25:00.786Z,4.28
2023-07-30T02:27:28.023Z,3.88
2023-07-30T02:29:55.637Z,4.25
2023-07-30T02:32:30.041Z,3.92
2023-07-30T02:34:56.899Z,3.88
2023-07-30T02:37:24.476Z,4.35
2023-07-30T02:39:51.146Z,4.00
2023-07-30T02:42:17.939Z,3.53
2023-07-30T02:44:46.932Z,4.15
2023-07-30T02:47:15.090Z,4.13
2023-07-30T02:49:44.671Z,4.47
2023-07-30T02:52:11.431Z,4.05
2023-07-30T02:54:47.322Z,3.88
2023-07-30T02:57:17.014Z,3.80
2023-07-30T02:59:44.525Z,4.40
2023-07-30T03:02:15.865Z,4.57
2023-07-30T03:04:42.876Z,4.45
2023-07-30T03:07:10.739Z,4.30
2023-07-30T03:09:37.555Z,4.32
2023-07-30T03:12:04.749Z,4.45
2023-07-30T03:14:31.404Z,4.72
2023-07-30T03:17:01.076Z,4.25
2023-07-30T03:19:28.246Z,4.43
2023-07-30T03:21:55.127Z,4.10
2023-07-30T03:24:22.128Z,4.60
2023-07-30T03:26:51.613Z,4.22
2023-07-30T03:29:18.448Z,4.82
2023-07-30T03:31:45.206Z,3.95
2023-07-30T03:34:16.948Z,4.63
2023-07-30T03:36:43.734Z,4.30
2023-07-30T03:39:13.560Z,4.90
2023-07-30T03:41:40.779Z,4.22
2023-07-30T03:44:10.620Z,4.80
2023-07-30T03:46:38.056Z,3.92
2023-07-30T03:49:04.886Z,4.18
2023-07-30T03:51:35.930Z,4.38
2023-07-30T03:54:03.592Z,4.75
2023-07-30T03:56:30.550Z,4.88
2023-07-30T03:58:57.733Z,4.40
2023-07-30T04:01:27.460Z,4.57
2023-07-30T04:03:54.404Z,4.60
2023-07-30T04:06:21.330Z,4.18
2023-07-30T04:08:48.100Z,4.47
2023-07-30T04:11:15.061Z,4.40
2023-07-30T04:13:45.980Z,4.05
2023-07-30T04:16:14.000Z,4.75
2023-07-30T04:18:41.473Z,4.15
2023-07-30T04:21:08.364Z,4.43
2023-07-30T04:23:47.074Z,4.40
2023-07-30T04:26:16.634Z,4.45
2023-07-30T04:28:43.475Z,3.95
2023-07-30T04:31:10.356Z,4.35
2023-07-30T04:33:39.533Z,3.95
2023-07-30T04:36:08.354Z,3.88
2023-07-30T04:38:35.356Z,4.40
2023-07-30T04:41:02.514Z,4.13
2023-07-30T04:43:31.121Z,4.03
2023-07-30T04:45:58.022Z,4.28
2023-07-30T04:48:24.891Z,4.43
2023-07-30T04:50:51.775Z,4.63
2023-07-30T04:53:19.744Z,4.90
2023-07-30T04:55:47.567Z,4.82
2023-07-30T04:58:14.439Z,4.70
2023-07-30T05:00:42.057Z,5.10
2023-07-30T05:03:11.262Z,4.93
2023-07-30T05:05:38.249Z,5.50
2023-07-30T05:08:07.314Z,5.28
2023-07-30T05:10:34.304Z,5.45
2023-07-30T05:13:01.147Z,4.95
2023-07-30T05:15:30.475Z,5.70
2023-07-30T05:17:57.313Z,4.55
2023-07-30T05:20:27.069Z,4.85
2023-07-30T05:22:53.844Z,5.22
2023-07-30T05:25:20.543Z,4.43
2023-07-30T05:27:47.974Z,5.05
2023-07-30T05:30:25.342Z,4.78
2023-07-30T05:32:52.326Z,4.40
2023-07-30T05:35:21.116Z,4.97
2023-07-30T05:37:48.449Z,4.72
2023-07-30T05:40:15.447Z,5.05
2023-07-30T05:42:42.130Z,4.97
2023-07-30T05:45:09.412Z,4.25
2023-07-30T05:47:47.931Z,4.72
2023-07-30T05:50:15.118Z,4.57
2023-07-30T05:52:41.920Z,4.30
2023-07-30T05:55:09.148Z,4.18
2023-07-30T05:57:36.011Z,3.85
2023-07-30T06:00:03.531Z,4.25
2023-07-30T06:02:30.330Z,3.67
2023-07-30T06:04:57.092Z,3.60
2023-07-30T06:07:23.932Z,4.03
2023-07-30T06:09:50.860Z,3.92
2023-07-30T06:12:17.671Z,3.88
2023-07-30T06:14:44.560Z,4.05
2023-07-30T06:17:12.683Z,3.33
2023-07-30T06:19:39.471Z,4.10
2023-07-30T06:22:16.986Z,4.10
2023-07-30T06:24:43.724Z,3.70
2023-07-30T06:27:12.145Z,3.63
2023-07-30T06:29:38.874Z,3.65
2023-07-30T06:32:09.000Z,3.92
2023-07-30T06:34:35.798Z,4.05
2023-07-30T06:37:03.305Z,4.05
2023-07-30T06:39:30.150Z,3.78
2023-07-30T06:41:57.158Z,3.60
2023-07-30T06:44:30.659Z,3.53
2023-07-30T06:46:57.571Z,3.53
2023-07-30T06:49:24.555Z,3.80
2023-07-30T06:51:51.436Z,4.25
2023-07-30T06:54:19.038Z,3.38
2023-07-30T06:56:45.919Z,3.35
2023-07-30T06:59:13.109Z,3.67
2023-07-30T07:01:40.246Z,3.45
2023-07-30T07:04:07.529Z,3.80
2023-07-30T07:06:34.531Z,4.05
2023-07-30T07:09:02.012Z,3.83
2023-07-30T07:11:33.039Z,4.22
2023-07-30T07:14:00.646Z,4.25
2023-07-30T07:16:30.837Z,4.40
2023-07-30T07:18:57.801Z,4.43
2023-07-30T07:21:27.854Z,3.85
2023-07-30T07:23:55.207Z,3.97
2023-07-30T07:26:22.619Z,5.20
2023-07-30T07:28:50.007Z,3.92
2023-07-30T07:31:18.062Z,4.32
2023-07-30T07:33:46.501Z,4.30
2023-07-30T07:36:15.416Z,4.45
2023-07-30T07:38:45.110Z,4.35
2023-07-30T07:41:24.050Z,3.88
2023-07-30T07:43:51.850Z,3.67
2023-07-30T07:46:18.660Z,3.42
2023-07-30T07:48:45.594Z,3.42
2023-07-30T07:51:13.219Z,4.00
2023-07-30T07:53:42.050Z,3.53
2023-07-30T07:56:09.101Z,3.97
2023-07-30T07:58:36.967Z,3.20
2023-07-30T08:01:03.822Z,3.80
2023-07-30T08:03:30.957Z,3.80
2023-07-30T08:05:57.927Z,3.83
2023-07-30T08:08:27.121Z,4.07
2023-07-30T08:10:55.138Z,3.80
2023-07-30T08:13:22.026Z,4.15
2023-07-30T08:15:50.312Z,4.60
2023-07-30T08:18:17.532Z,4.32
2023-07-30T08:20:45.426Z,4.20
2023-07-30T08:23:15.104Z,3.95
2023-07-30T08:25:42.700Z,3.65
2023-07-30T08:28:12.117Z,3.85
2023-07-30T08:30:38.973Z,3.17
2023-07-30T08:33:16.486Z,3.28
2023-07-30T08:35:43.377Z,3.65
2023-07-30T08:38:10.227Z,2.90
2023-07-30T08:40:36.984Z,2.80
2023-07-30T08:43:05.413Z,3.10
2023-07-30T08:45:33.227Z,2.92
2023-07-30T08:48:00.151Z,2.80
2023-07-30T08:50:27.714Z,2.80
2023-07-30T08:52:56.471Z,2.30
2023-07-30T08:55:24.166Z,2.50
2023-07-30T08:57:54.452Z,2.72
2023-07-30T09:00:25.566Z,2.50
2023-07-30T09:02:55.765Z,2.67
2023-07-30T09:05:23.941Z,2.58
2023-07-30T09:07:51.271Z,2.38
2023-07-30T09:10:18.241Z,2.20
2023-07-30T09:12:46.528Z,2.35
2023-07-30T09:15:15.550Z,2.15
2023-07-30T09:17:42.284Z,2.30
2023-07-30T09:20:09.531Z,2.10
2023-07-30T09:22:42.365Z,2.78
2023-07-30T09:25:09.833Z,2.72
2023-07-30T09:27:36.727Z,2.33
2023-07-30T09:30:07.513Z,2.40
2023-07-30T09:32:36.111Z,2.50
2023-07-30T09:35:10.942Z,2.63
2023-07-30T09:37:39.942Z,2.22
2023-07-30T09:40:08.212Z,2.60
2023-07-30T09:42:39.004Z,3.00
2023-07-30T09:45:09.862Z,2.30
2023-07-30T09:47:40.407Z,2.40
2023-07-30T09:50:08.180Z,2.65
2023-07-30T09:52:47.024Z,2.60
2023-07-30T09:55:13.863Z,3.20
2023-07-30T09:57:40.905Z,3.08
2023-07-30T10:00:12.298Z,3.38
2023-07-30T10:02:41.992Z,3.47
2023-07-30T10:05:18.918Z,3.63
2023-07-30T10:07:57.517Z,3.20
2023-07-30T10:10:27.359Z,3.10
2023-07-30T10:12:56.672Z,3.53
2023-07-30T10:15:24.927Z,3.40
2023-07-30T10:17:52.647Z,5.50
2023-07-30T10:20:32.840Z,3.53
2023-07-30T10:23:05.652Z,4.32
2023-07-30T10:25:54.071Z,3.97
2023-07-30T10:28:30.481Z,4.18
2023-07-30T10:31:02.752Z,4.47
2023-07-30T10:33:54.459Z,4.80
2023-07-30T10:36:43.092Z,5.05
2023-07-30T10:39:15.119Z,5.63
2023-07-30T10:41:44.563Z,5.25
2023-07-30T10:44:33.300Z,5.40
2023-07-30T10:47:03.001Z,4.53
2023-07-30T10:49:30.537Z,4.10
2023-07-30T10:51:58.919Z,3.92
2023-07-30T10:54:26.475Z,3.78
2023-07-30T10:56:54.081Z,5.93
2023-07-30T10:59:21.601Z,3.60
2023-07-30T11:01:48.350Z,3.10
2023-07-30T11:04:19.727Z,3.75
2023-07-30T11:06:51.506Z,3.58
2023-07-30T11:09:26.435Z,3.40
2023-07-30T11:11:59.335Z,4.10
2023-07-30T11:14:32.225Z,4.30
2023-07-30T11:17:04.715Z,4.57
2023-07-30T11:19:31.884Z,4.72
2023-07-30T11:21:59.100Z,5.38
2023-07-30T11:24:39.665Z,4.72
2023-07-30T11:27:16.857Z,4.15
2023-07-30T11:30:00.028Z,4.72
2023-07-30T11:32:31.120Z,3.90
2023-07-30T11:35:01.968Z,3.78
2023-07-30T11:37:28.809Z,2.92
2023-07-30T11:39:55.722Z,2.50
2023-07-30T11:42:22.820Z,2.20
2023-07-30T11:44:51.581Z,2.30
2023-07-30T11:47:25.004Z,1.80
2023-07-30T11:50:01.013Z,1.50
2023-07-30T11:52:32.003Z,1.48
2023-07-30T11:55:05.544Z,1.63
2023-07-30T11:57:44.591Z,1.33
2023-07-30T12:00:13.139Z,1.70
2023-07-30T12:02:40.855Z,1.80
2023-07-30T12:05:12.536Z,2.10
2023-07-30T12:07:43.732Z,1.80
2023-07-30T12:10:11.842Z,1.50
2023-07-30T12:12:45.556Z,1.63
2023-07-30T12:15:13.534Z,1.60
2023-07-30T12:17:40.956Z,1.60
2023-07-30T12:20:08.398Z,2.00
2023-07-30T12:22:39.851Z,1.60
2023-07-30T12:25:07.513Z,1.73
2023-07-30T12:27:34.511Z,1.48
2023-07-30T12:30:02.327Z,1.50
2023-07-30T12:32:30.591Z,2.20
2023-07-30T12:34:57.431Z,1.50
2023-07-30T12:37:24.303Z,1.63
2023-07-30T12:39:51.220Z,1.65
2023-07-30T12:42:18.093Z,1.65
2023-07-30T12:44:44.727Z,1.70
2023-07-30T12:47:12.720Z,1.98
2023-07-30T12:49:39.618Z,1.67
2023-07-30T12:52:07.131Z,1.40
2023-07-30T12:54:33.984Z,1.88
2023-07-30T12:57:00.950Z,2.08
2023-07-30T12:59:27.776Z,1.80
2023-07-30T13:01:54.620Z,1.80
2023-07-30T13:04:22.726Z,1.75
2023-07-30T13:06:49.405Z,2.00
2023-07-30T13:09:16.358Z,2.05
2023-07-30T13:11:43.336Z,2.28
2023-07-30T13:14:10.103Z,2.08
2023-07-30T13:16:37.139Z,2.17
2023-07-30T13:19:03.988Z,1.77
2023-07-30T13:21:30.946Z,2.53
2023-07-30T13:24:02.241Z,1.88
2023-07-30T13:26:34.128Z,1.67
2023-07-30T13:29:02.685Z,1.20
2023-07-30T13:31:30.234Z,1.50
2023-07-30T13:33:59.634Z,1.25
2023-07-30T13:36:29.271Z,1.50
2023-07-30T13:38:57.631Z,1.20
2023-07-30T13:41:24.458Z,1.05
2023-07-30T13:43:51.414Z,0.80
2023-07-30T13:46:20.786Z,0.85
2023-07-30T13:48:48.181Z,0.90
2023-07-30T13:51:15.211Z,0.77
2023-07-30T13:53:44.656Z,0.65
2023-07-30T13:56:16.971Z,0.93
2023-07-30T13:58:44.006Z,0.90
2023-07-30T14:01:10.977Z,0.50
2023-07-30T14:03:47.531Z,0.90
2023-07-30T14:06:19.290Z,0.77
2023-07-30T14:08:51.045Z,1.00
2023-07-30T14:11:17.956Z,0.90
2023-07-30T14:13:44.732Z,1.23
2023-07-30T14:16:17.321Z,1.20
2023-07-30T14:18:44.326Z,1.45
2023-07-30T14:21:17.800Z,1.40
2023-07-30T14:24:00.133Z,1.38
2023-07-30T14:26:31.860Z,0.85
2023-07-30T14:28:58.829Z,1.10
2023-07-30T14:31:25.806Z,1.20
2023-07-30T14:34:01.656Z,1.10
2023-07-30T14:36:28.525Z,1.00
2023-07-30T14:38:55.396Z,1.00
2023-07-30T14:41:23.127Z,0.90
2023-07-30T14:43:50.425Z,1.20
2023-07-30T14:46:17.429Z,1.10
2023-07-30T14:48:44.794Z,0.90
2023-07-30T14:51:17.064Z,0.70
2023-07-30T14:53:47.483Z,0.73
2023-07-30T14:56:14.350Z,0.93
2023-07-30T14:58:44.180Z,1.15
2023-07-30T15:01:12.601Z,1.33
2023-07-30T15:03:39.890Z,1.30
2023-07-30T15:06:17.051Z,1.10
2023-07-30T15:08:46.752Z,1.45
2023-07-30T15:11:15.142Z,1.60
2023-07-30T15:13:42.608Z,1.17
2023-07-30T15:16:09.583Z,1.63
2023-07-30T15:18:37.918Z,1.40
2023-07-30T15:21:07.344Z,1.48
2023-07-30T15:23:37.356Z,1.10
2023-07-30T15:26:06.398Z,1.55
2023-07-30T15:28:33.986Z,1.33
2023-07-30T15:31:01.085Z,1.67
2023-07-30T15:33:33.770Z,1.73
2023-07-30T15:36:03.275Z,1.42
2023-07-30T15:38:37.553Z,1.13
2023-07-30T15:41:04.427Z,1.43
2023-07-30T15:43:32.703Z,1.70
2023-07-30T15:46:03.166Z,1.60
2023-07-30T15:48:30.607Z,1.60
2023-07-30T15:50:57.853Z,1.58
2023-07-30T15:53:24.714Z,1.63
2023-07-30T15:55:52.406Z,1.55
2023-07-30T15:58:31.978Z,1.55
2023-07-30T16:01:02.543Z,1.60
2023-07-30T16:03:29.324Z,2.00
2023-07-30T16:05:56.385Z,1.50
2023-07-30T16:08:25.014Z,1.45
2023-07-30T16:10:52.090Z,1.42
2023-07-30T16:13:18.819Z,1.73
2023-07-30T16:15:46.167Z,1.10
2023-07-30T16:18:15.229Z,1.13
2023-07-30T16:20:42.518Z,1.05
2023-07-30T16:23:09.392Z,0.63
2023-07-30T16:25:47.008Z,0.90
2023-07-30T16:28:19.620Z,0.93
2023-07-30T16:30:47.403Z,1.02
2023-07-30T16:33:14.312Z,1.17
2023-07-30T16:35:47.667Z,1.20
2023-07-30T16:38:17.198Z,1.20
2023-07-30T16:40:44.464Z,1.15
2023-07-30T16:43:17.008Z,1.50
2023-07-30T16:46:02.942Z,1.30
2023-07-30T16:48:30.761Z,1.00
2023-07-30T16:50:57.672Z,1.33
2023-07-30T16:53:24.428Z,1.10
2023-07-30T16:55:51.192Z,1.20
2023-07-30T16:58:19.640Z,1.30
2023-07-30T17:00:47.449Z,1.27
2023-07-30T17:03:17.494Z,1.20
2023-07-30T17:05:59.503Z,1.40
2023-07-30T17:08:29.847Z,1.15
2023-07-30T17:10:57.035Z,1.45
2023-07-30T17:13:24.844Z,1.30
2023-07-30T17:15:51.776Z,1.20
2023-07-30T17:18:18.767Z,1.27
2023-07-30T17:20:56.319Z,1.50
2023-07-30T17:23:23.060Z,1.33
2023-07-30T17:25:54.124Z,1.70
2023-07-30T17:28:21.277Z,1.58
2023-07-30T17:30:48.210Z,1.50
2023-07-30T17:33:15.103Z,1.75
2023-07-30T17:35:42.205Z,1.63
2023-07-30T17:38:09.944Z,1.73
2023-07-30T17:40:40.197Z,1.75
2023-07-30T17:43:07.711Z,1.90
2023-07-30T17:45:36.951Z,1.70
2023-07-30T17:48:05.420Z,2.00
2023-07-30T17:50:33.004Z,1.85
2023-07-30T17:52:59.732Z,1.77
2023-07-30T17:55:28.796Z,1.90
2023-07-30T17:57:55.690Z,1.73
2023-07-30T18:00:32.722Z,1.75
2023-07-30T18:02:59.588Z,1.63
2023-07-30T18:05:37.618Z,1.77
2023-07-30T18:08:12.602Z,1.77
2023-07-30T18:10:48.065Z,2.08
2023-07-30T18:13:15.166Z,1.95
2023-07-30T18:15:47.495Z,2.30
2023-07-30T18:18:18.705Z,2.28
2023-07-30T18:20:46.052Z,2.15
2023-07-30T18:23:13.544Z,2.40
2023-07-30T18:25:40.485Z,2.53
2023-07-30T18:28:08.048Z,2.58
2023-07-30T18:30:35.729Z,2.63
2023-07-30T18:33:02.810Z,2.35
2023-07-30T18:35:30.330Z,2.97
2023-07-30T18:37:57.946Z,2.65
2023-07-30T18:40:25.105Z,3.30
2023-07-30T18:42:54.882Z,3.03
2023-07-30T18:45:21.939Z,2.80
2023-07-30T18:47:49.241Z,3.08
2023-07-30T18:50:16.461Z,3.40
2023-07-30T18:52:43.372Z,3.33
2023-07-30T18:55:10.195Z,3.40
2023-07-30T18:57:37.113Z,2.95
2023-07-30T19:00:06.418Z,3.15
2023-07-30T19:02:35.835Z,3.35
2023-07-30T19:05:12.682Z,3.42
2023-07-30T19:07:40.023Z,3.67
2023-07-30T19:10:07.446Z,3.22
2023-07-30T19:12:34.329Z,3.22
2023-07-30T19:15:01.194Z,3.42
2023-07-30T19:17:28.753Z,3.72
2023-07-30T19:20:00.914Z,3.35
2023-07-30T19:22:28.314Z,3.60
2023-07-30T19:24:55.241Z,3.08
2023-07-30T19:27:27.361Z,3.78
2023-07-30T19:29:57.191Z,3.40
2023-07-30T19:32:24.912Z,3.45
2023-07-30T19:34:51.823Z,4.00
2023-07-30T19:37:18.782Z,3.85
2023-07-30T19:39:46.201Z,3.58
2023-07-30T19:42:13.898Z,4.32
2023-07-30T19:44:50.755Z,4.40
2023-07-30T19:47:20.920Z,4.90
2023-07-30T19:49:49.053Z,4.25
2023-07-30T19:52:16.696Z,4.88
2023-07-30T19:54:43.461Z,4.38
2023-07-30T19:57:15.500Z,4.72
2023-07-30T19:59:46.895Z,4.25
2023-07-30T20:02:14.363Z,4.00
2023-07-30T20:04:41.404Z,4.15
2023-07-30T20:07:08.531Z,3.88
2023-07-30T20:09:37.493Z,3.70
2023-07-30T20:12:05.601Z,4.15
2023-07-30T20:14:32.861Z,4.22
2023-07-30T20:17:00.348Z,4.10
2023-07-30T20:19:29.928Z,3.80
2023-07-30T20:21:57.676Z,3.60
2023-07-30T20:24:25.009Z,3.30
2023-07-30T20:27:01.893Z,3.35
2023-07-30T20:29:31.382Z,3.60
2023-07-30T20:31:59.964Z,3.65
2023-07-30T20:34:28.810Z,3.95
2023-07-30T20:36:58.609Z,3.70
2023-07-30T20:39:28.415Z,4.32
2023-07-30T20:42:01.889Z,4.15
2023-07-30T20:44:31.769Z,4.45
2023-07-30T20:47:00.484Z,4.15
2023-07-30T20:49:27.477Z,4.70
2023-07-30T20:51:54.388Z,4.30
2023-07-30T20:54:21.293Z,4.55
2023-07-30T20:56:50.861Z,4.05
2023-07-30T20:59:20.941Z,4.03
2023-07-30T21:01:48.148Z,4.20
2023-07-30T21:04:15.343Z,4.35
2023-07-30T21:06:42.218Z,4.13
2023-07-30T21:09:11.462Z,4.18
2023-07-30T21:11:38.300Z,4.28
2023-07-30T21:14:08.094Z,4.50
2023-07-30T21:16:39.924Z,4.72
2023-07-30T21:19:07.054Z,4.28
2023-07-30T21:21:35.629Z,4.97
2023-07-30T21:24:02.417Z,4.60
2023-07-30T21:26:30.317Z,4.88
2023-07-30T21:28:57.217Z,5.47
2023-07-30T21:31:24.164Z,5.03
2023-07-30T21:33:51.079Z,5.90
2023-07-30T21:36:17.991Z,5.78
2023-07-30T21:38:44.894Z,4.97
2023-07-30T21:41:11.888Z,5.55
2023-07-30T21:43:38.661Z,5.18
2023-07-30T21:46:05.778Z,5.40
2023-07-30T21:48:32.785Z,5.15
2023-07-30T21:51:00.934Z,5.50
2023-07-30T21:53:28.850Z,5.55
2023-07-30T21:55:59.297Z,6.75
2023-07-30T21:58:26.718Z,6.13
2023-07-30T22:00:55.335Z,6.55
2023-07-30T22:03:22.674Z,6.35
2023-07-30T22:06:01.915Z,6.05
2023-07-30T22:08:31.887Z,6.97
2023-07-30T22:11:00.955Z,5.97
2023-07-30T22:13:28.020Z,6.53
2023-07-30T22:15:54.858Z,6.38
2023-07-30T22:18:21.730Z,6.10
2023-07-30T22:20:51.930Z,5.70
2023-07-30T22:23:18.674Z,5.90
2023-07-30T22:25:46.606Z,5.88
2023-07-30T22:28:13.542Z,6.43
2023-07-30T22:30:46.901Z,7.65
2023-07-30T22:33:16.960Z,6.90
2023-07-30T22:35:46.943Z,8.02
2023-07-30T22:38:13.673Z,6.20
2023-07-30T22:40:43.242Z,6.95
2023-07-30T22:43:10.063Z,6.40
2023-07-30T22:45:37.040Z,6.82
2023-07-30T22:48:06.649Z,6.68
2023-07-30T22:50:35.601Z,7.18
2023-07-30T22:53:02.322Z,7.05
2023-07-30T22:55:31.898Z,7.20
2023-07-30T22:57:58.860Z,7.15
2023-07-30T23:00:31.857Z,6.88
2023-07-30T23:03:01.800Z,7.63
2023-07-30T23:05:28.804Z,6.70
2023-07-30T23:07:58.194Z,7.35
2023-07-30T23:10:29.058Z,8.18
2023-07-30T23:12:58.824Z,7.88
2023-07-30T23:15:25.834Z,8.30
2023-07-30T23:17:53.809Z,7.85
2023-07-30T23:20:22.665Z,7.10
2023-07-30T23:22:49.569Z,7.88
2023-07-30T23:25:16.556Z,7.22
2023-07-30T23:27:43.317Z,8.38
2023-07-30T23:30:10.524Z,7.25
2023-07-30T23:32:37.726Z,7.03
2023-07-30T23:35:04.906Z,8.07
2023-07-30T23:37:31.877Z,7.28
2023-07-30T23:39:58.793Z,7.80
2023-07-30T23:42:25.924Z,7.47
2023-07-30T23:44:55.178Z,7.40
2023-07-30T23:47:22.147Z,8.35
2023-07-30T23:49:49.667Z,7.30
2023-07-30T23:52:16.907Z,7.28
2023-07-30T23:54:46.876Z,7.22
2023-07-30T23:57:13.650Z,6.65
2023-07-30T23:59:41.831Z,7.35
